Time;durP1;ratioP1;P1;durP2;ratioP2;P2;SDS_P1;SDS_P2;PMS_P1;PMS_P2;Temp;Humidity;BMP_temperature;BMP_pressure;BME280_temperature;BME280_humidity;BME280_pressure;Samples;Min_cycle;Max_cycle;Signal;HPM_P1;HPM_P2
2022/02/03 00:00:39;;;;;;;;;;;;;;;;;;348472;28;949;-74
2022/02/03 00:00:40;;;;;;;;;;;;;;;;;;347194;28;1128;-74
2022/02/03 00:00:50;;;;;;;;;;;;;;;;;;347086;28;1085;-74
2022/02/03 00:01:03;;;;;;;;;;;;;;;;;;347260;28;1117;-74
2022/02/03 00:01:20;;;;;;;;;;;;;;;;;;347256;28;799;-73
2022/02/03 00:01:49;;;;;;;;;;;;;;;;;;347301;28;810;-74
2022/02/03 00:02:16;;;;;;;;;;;;;;;;;;347293;28;932;-73
2022/02/03 00:02:41;;;;;;;;;;;;;;;;;;347270;28;1016;-74
2022/02/03 00:03:03;;;;;;;;;;;;;;;;;;347237;28;1008;-73
2022/02/03 00:03:21;;;;;;;;;;;;;;;;;;347826;28;1457;-74
2022/02/03 00:03:46;;;;;;;;;;;;;;;;;;347188;28;1422;-74
2022/02/03 00:04:05;;;;;;;;;;;;;;;;;;347257;28;1008;-74
2022/02/03 00:04:18;;;;;;;;;;;;;;;;;;347231;28;921;-74
2022/02/03 00:04:31;;;;;;;;;;;;;;;;;;347329;28;794;-74
2022/02/03 00:05:21;;;;;;;;;;;;;;;;;;347255;28;944;-73
2022/02/03 00:06:01;;;;;;;;;;;;;;;;;;347307;28;1008;-73
2022/02/03 00:06:14;;;;;;;;;;;;;;;;;;347221;28;925;-74
2022/02/03 00:06:44;;;;;;;;;;;;;;;;;;347192;28;1985;-73
2022/02/03 00:06:59;;;;;;;;;;;;;;;;;;347179;28;921;-74
2022/02/03 00:07:14;;;;;;;;;;;;;;;;;;347590;28;1692;-73
2022/02/03 00:07:33;;;;;;;;;;;;;;;;;;348002;28;1497;-73
2022/02/03 00:08:01;;;;;;;;;;;;;;;;;;348556;28;1594;-73
2022/02/03 00:08:20;;;;;;;;;;;;;;;;;;348447;28;1351;-74
2022/02/03 00:09:44;;;;;;;;;;;;;;;;;;347264;28;850;-73
2022/02/03 00:10:28;;;;;;;;;;;;;;;;;;347231;28;941;-74
2022/02/03 00:22:07;;;;;;;;;;;;;;;;;;347054;28;952;-73
2022/02/03 00:23:28;;;;;;;;;;;;;;;;;;348523;28;818;-74
2022/02/03 00:24:06;;;;;;;;;;;;;;;;;;348328;28;1304;-73
2022/02/03 00:24:19;;;;;;;;;;;;;;;;;;346901;28;1139;-74
2022/02/03 00:24:39;;;;;;;;;;;;;;;;;;345642;28;1290;-73
2022/02/03 00:25:06;;;;;;;;;;;;;;;;;;345725;28;929;-73
2022/02/03 00:25:31;;;;;;;;;;;;;;;;;;347127;28;862;-74
2022/02/03 00:25:43;;;;;;;;;;;;;;;;;;347087;28;937;-74
2022/02/03 00:25:58;;;;;;;;;;;;;;;;;;347180;28;834;-74
2022/02/03 00:26:11;;;;;;;;;;;;;;;;;;347076;28;841;-74
2022/02/03 00:26:25;;;;;;;;;;;;;;;;;;347130;28;922;-73
2022/02/03 00:26:41;;;;;;;;;;;;;;;;;;347196;28;1075;-73
2022/02/03 00:27:04;;;;;;;;;;;;;;;;;;347255;28;988;-73
2022/02/03 00:27:37;;;;;;;;;;;;;;;;;;347245;28;908;-73
2022/02/03 00:28:08;;;;;;;;;;;;;;;;;;347229;28;833;-73
2022/02/03 00:28:22;;;;;;;;;;;;;;;;;;347257;28;786;-74
2022/02/03 00:28:40;;;;;;;;;;;;;;;;;;347283;28;932;-73
2022/02/03 00:28:51;;;;;;;;;;;;;;;;;;347206;28;928;-73
2022/02/03 00:29:04;;;;;;;;;;;;;;;;;;347255;28;737;-74
2022/02/03 00:29:26;;;;;;;;;;;;;;;;;;347178;28;913;-74
2022/02/03 00:29:51;;;;;;;;;;;;;;;;;;347205;28;862;-73
2022/02/03 00:30:07;;;;;;;;;;;;;;;;;;348070;28;1688;-73
2022/02/03 00:30:19;;;;;;;;;;;;;;;;;;347083;28;941;-73
2022/02/03 00:31:05;;;;;;;;;;;;;;;;;;347160;28;952;-74
2022/02/03 00:32:01;;;;;;;;;;;;;;;;;;347189;28;909;-73
2022/02/03 00:32:41;;;;;;;;;;;;;;;;;;347220;28;940;-73
2022/02/03 00:33:35;;;;;;;;;;;;;;;;;;348584;28;905;-73
2022/02/03 00:34:03;;;;;;;;;;;;;;;;;;348595;28;921;-73
2022/02/03 00:34:19;;;;;;;;;;;;;;;;;;348583;28;909;-73
2022/02/03 00:34:41;;;;;;;;;;;;;;;;;;348520;28;1065;-73
2022/02/03 00:35:08;;;;;;;;;;;;;;;;;;348565;28;849;-73
2022/02/03 00:35:34;;;;;;;;;;;;;;;;;;348534;28;897;-73
2022/02/03 00:36:16;;;;;;;;;;;;;;;;;;348568;28;913;-73
2022/02/03 00:36:27;;;;;;;;;;;;;;;;;;347058;28;1039;-74
2022/02/03 00:37:08;;;;;;;;;;;;;;;;;;347181;28;937;-73
2022/02/03 00:37:32;;;;;;;;;;;;;;;;;;347259;28;1007;-74
2022/02/03 00:48:24;;;;;;;;;;;;;;;;;;347242;28;802;-73
2022/02/03 00:48:44;;;;;;;;;;;;;;;;;;347205;28;1071;-73
2022/02/03 00:49:01;;;;;;;;;;;;;;;;;;347195;28;913;-73
2022/02/03 00:49:14;;;;;;;;;;;;;;;;;;347159;28;973;-74
2022/02/03 00:49:25;;;;;;;;;;;;;;;;;;347227;28;858;-73
2022/02/03 00:49:47;;;;;;;;;;;;;;;;;;347261;28;1731;-74
2022/02/03 00:50:23;;;;;;;;;;;;;;;;;;347217;28;805;-74
2022/02/03 00:50:40;;;;;;;;;;;;;;;;;;347170;28;981;-74
2022/02/03 00:50:52;;;;;;;;;;;;;;;;;;347581;28;1708;-73
2022/02/03 00:51:02;;;;;;;;;;;;;;;;;;348526;28;862;-74
2022/02/03 00:51:12;;;;;;;;;;;;;;;;;;348523;28;920;-73
2022/02/03 00:51:24;;;;;;;;;;;;;;;;;;348577;28;921;-73
2022/02/03 00:51:35;;;;;;;;;;;;;;;;;;348318;28;1450;-73
2022/02/03 00:51:49;;;;;;;;;;;;;;;;;;347578;28;1757;-74
2022/02/03 00:52:00;;;;;;;;;;;;;;;;;;348357;28;1273;-73
2022/02/03 00:52:10;;;;;;;;;;;;;;;;;;348368;28;1789;-74
2022/02/03 00:52:21;;;;;;;;;;;;;;;;;;348483;28;916;-73
2022/02/03 00:52:34;;;;;;;;;;;;;;;;;;348514;28;967;-74
2022/02/03 00:52:45;;;;;;;;;;;;;;;;;;348492;28;924;-73
2022/02/03 00:52:56;;;;;;;;;;;;;;;;;;348111;28;1704;-73
2022/02/03 00:53:12;;;;;;;;;;;;;;;;;;347230;28;1828;-74
2022/02/03 00:53:24;;;;;;;;;;;;;;;;;;348488;28;960;-74
2022/02/03 00:53:35;;;;;;;;;;;;;;;;;;348324;28;1843;-73
2022/02/03 00:53:46;;;;;;;;;;;;;;;;;;348442;28;924;-74
2022/02/03 00:53:58;;;;;;;;;;;;;;;;;;348527;28;976;-73
2022/02/03 00:54:10;;;;;;;;;;;;;;;;;;348584;28;952;-74
2022/02/03 00:54:23;;;;;;;;;;;;;;;;;;348516;28;951;-73
2022/02/03 00:54:33;;;;;;;;;;;;;;;;;;348607;28;952;-73
2022/02/03 00:54:43;;;;;;;;;;;;;;;;;;348298;28;1628;-73
2022/02/03 00:54:54;;;;;;;;;;;;;;;;;;347209;28;873;-74
2022/02/03 00:55:05;;;;;;;;;;;;;;;;;;347230;28;964;-74
2022/02/03 00:55:15;;;;;;;;;;;;;;;;;;347076;28;1293;-74
2022/02/03 00:55:25;;;;;;;;;;;;;;;;;;347296;28;948;-73
2022/02/03 00:55:36;;;;;;;;;;;;;;;;;;347139;28;969;-74
2022/02/03 00:55:47;;;;;;;;;;;;;;;;;;347190;28;929;-73
2022/02/03 00:56:02;;;;;;;;;;;;;;;;;;347272;28;769;-74
2022/02/03 00:56:13;;;;;;;;;;;;;;;;;;347124;28;997;-74
2022/02/03 00:56:43;;;;;;;;;;;;;;;;;;347213;28;857;-74
2022/02/03 00:56:58;;;;;;;;;;;;;;;;;;347169;28;1114;-73
2022/02/03 00:57:10;;;;;;;;;;;;;;;;;;347201;28;818;-74
2022/02/03 00:57:39;;;;;;;;;;;;;;;;;;347154;28;893;-74
2022/02/03 00:57:51;;;;;;;;;;;;;;;;;;347228;28;886;-74
2022/02/03 00:58:03;;;;;;;;;;;;;;;;;;347169;28;989;-74
2022/02/03 00:58:15;;;;;;;;;;;;;;;;;;347173;28;1037;-74
2022/02/03 00:58:26;;;;;;;;;;;;;;;;;;347144;28;1031;-74
2022/02/03 00:58:40;;;;;;;;;;;;;;;;;;347208;28;925;-74
2022/02/03 00:58:52;;;;;;;;;;;;;;;;;;347219;28;1087;-74
2022/02/03 00:59:02;;;;;;;;;;;;;;;;;;347181;28;945;-74
2022/02/03 00:59:14;;;;;;;;;;;;;;;;;;347180;28;956;-73
2022/02/03 00:59:28;;;;;;;;;;;;;;;;;;347101;28;929;-74
2022/02/03 00:59:40;;;;;;;;;;;;;;;;;;347194;28;937;-74
2022/02/03 00:59:57;;;;;;;;;;;;;;;;;;347208;28;975;-74
2022/02/03 01:00:09;;;;;;;;;;;;;;;;;;347236;28;929;-74
2022/02/03 01:00:20;;;;;;;;;;;;;;;;;;347151;28;916;-74
2022/02/03 01:00:33;;;;;;;;;;;;;;;;;;347164;28;984;-73
2022/02/03 01:00:44;;;;;;;;;;;;;;;;;;348046;28;1760;-73
2022/02/03 01:00:59;;;;;;;;;;;;;;;;;;348484;28;1575;-74
2022/02/03 01:01:13;;;;;;;;;;;;;;;;;;348595;28;826;-74
2022/02/03 01:01:27;;;;;;;;;;;;;;;;;;348627;28;838;-74
2022/02/03 01:01:38;;;;;;;;;;;;;;;;;;348547;28;912;-74
2022/02/03 01:01:49;;;;;;;;;;;;;;;;;;348599;28;921;-74
2022/02/03 01:02:03;;;;;;;;;;;;;;;;;;348528;28;925;-74
2022/02/03 01:02:14;;;;;;;;;;;;;;;;;;348639;28;904;-74
2022/02/03 01:02:28;;;;;;;;;;;;;;;;;;348657;28;892;-74
2022/02/03 01:02:42;;;;;;;;;;;;;;;;;;348656;28;940;-74
2022/02/03 01:03:03;;;;;;;;;;;;;;;;;;348499;28;1717;-74
2022/02/03 01:03:14;;;;;;;;;;;;;;;;;;348569;28;1762;-74
2022/02/03 01:03:26;;;;;;;;;;;;;;;;;;348415;28;1659;-74
2022/02/03 01:03:37;;;;;;;;;;;;;;;;;;348757;28;1734;-73
2022/02/03 01:03:51;;;;;;;;;;;;;;;;;;348842;28;909;-74
2022/02/03 01:04:09;;;;;;;;;;;;;;;;;;348839;28;805;-74
2022/02/03 01:04:22;;;;;;;;;;;;;;;;;;348851;28;892;-74
2022/02/03 01:04:32;;;;;;;;;;;;;;;;;;348774;28;1040;-74
2022/02/03 01:04:43;;;;;;;;;;;;;;;;;;348773;28;988;-74
2022/02/03 01:04:54;;;;;;;;;;;;;;;;;;347899;28;1686;-73
2022/02/03 01:05:04;;;;;;;;;;;;;;;;;;348256;28;1863;-74
2022/02/03 01:05:15;;;;;;;;;;;;;;;;;;348860;28;980;-74
2022/02/03 01:05:26;;;;;;;;;;;;;;;;;;348676;28;1816;-74
2022/02/03 01:05:39;;;;;;;;;;;;;;;;;;347388;28;976;-73
2022/02/03 01:05:49;;;;;;;;;;;;;;;;;;347424;28;964;-73
2022/02/03 01:06:01;;;;;;;;;;;;;;;;;;347494;28;979;-74
2022/02/03 01:06:12;;;;;;;;;;;;;;;;;;347458;28;983;-74
2022/02/03 01:06:25;;;;;;;;;;;;;;;;;;347462;28;964;-74
2022/02/03 01:06:42;;;;;;;;;;;;;;;;;;348087;28;2005;-73
2022/02/03 01:06:56;;;;;;;;;;;;;;;;;;347432;28;1209;-74
2022/02/03 01:07:10;;;;;;;;;;;;;;;;;;347464;28;1812;-73
2022/02/03 01:07:21;;;;;;;;;;;;;;;;;;348875;28;909;-74
2022/02/03 01:07:34;;;;;;;;;;;;;;;;;;348834;28;876;-74
2022/02/03 01:07:46;;;;;;;;;;;;;;;;;;348837;28;806;-74
2022/02/03 01:08:00;;;;;;;;;;;;;;;;;;348893;28;968;-73
2022/02/03 01:08:21;;;;;;;;;;;;;;;;;;348804;28;984;-74
2022/02/03 01:08:36;;;;;;;;;;;;;;;;;;348822;28;855;-74
2022/02/03 01:08:48;;;;;;;;;;;;;;;;;;348900;28;825;-73
2022/02/03 01:08:58;;;;;;;;;;;;;;;;;;348894;28;947;-74
2022/02/03 01:09:10;;;;;;;;;;;;;;;;;;348894;28;940;-74
2022/02/03 01:09:22;;;;;;;;;;;;;;;;;;348829;28;852;-74
2022/02/03 01:09:36;;;;;;;;;;;;;;;;;;348847;28;976;-74
2022/02/03 01:09:58;;;;;;;;;;;;;;;;;;348820;28;893;-73
2022/02/03 01:10:13;;;;;;;;;;;;;;;;;;348795;28;992;-74
2022/02/03 01:10:30;;;;;;;;;;;;;;;;;;348896;28;921;-74
2022/02/03 01:10:45;;;;;;;;;;;;;;;;;;348790;28;968;-74
2022/02/03 01:11:12;;;;;;;;;;;;;;;;;;348882;28;984;-74
2022/02/03 01:11:28;;;;;;;;;;;;;;;;;;348805;28;953;-74
2022/02/03 01:11:43;;;;;;;;;;;;;;;;;;348837;28;996;-74
2022/02/03 01:12:11;;;;;;;;;;;;;;;;;;348781;28;920;-74
2022/02/03 01:13:06;;;;;;;;;;;;;;;;;;348891;28;995;-74
2022/02/03 01:13:38;;;;;;;;;;;;;;;;;;347606;28;1905;-73
2022/02/03 01:14:13;;;;;;;;;;;;;;;;;;348474;28;1658;-73
2022/02/03 01:14:40;;;;;;;;;;;;;;;;;;347404;28;961;-73
2022/02/03 01:15:01;;;;;;;;;;;;;;;;;;347387;28;972;-73
2022/02/03 01:15:23;;;;;;;;;;;;;;;;;;347353;28;1036;-74
2022/02/03 01:15:41;;;;;;;;;;;;;;;;;;348263;28;1692;-74
2022/02/03 01:16:01;;;;;;;;;;;;;;;;;;347453;28;869;-74
2022/02/03 01:16:43;;;;;;;;;;;;;;;;;;348269;28;1789;-74
2022/02/03 01:17:08;;;;;;;;;;;;;;;;;;347681;28;1665;-73
2022/02/03 01:17:44;;;;;;;;;;;;;;;;;;347732;28;1644;-74
2022/02/03 01:34:48;;;;;;;;;;;;;;;;;;347385;28;868;-74
2022/02/03 01:35:11;;;;;;;;;;;;;;;;;;351264;28;1776;-73
2022/02/03 01:37:39;;;;;;;;;;;;;;;;;;348847;28;925;-73
2022/02/03 01:43:18;;;;;;;;;;;;;;;;;;350125;28;1359;-73
2022/02/03 01:43:43;;;;;;;;;;;;;;;;;;347401;28;965;-73
2022/02/03 01:44:02;;;;;;;;;;;;;;;;;;347378;28;1012;-74
2022/02/03 01:44:24;;;;;;;;;;;;;;;;;;347426;28;802;-74
2022/02/03 01:44:47;;;;;;;;;;;;;;;;;;347430;28;944;-74
2022/02/03 01:45:04;;;;;;;;;;;;;;;;;;347450;28;982;-74
2022/02/03 01:45:19;;;;;;;;;;;;;;;;;;347418;28;839;-74
2022/02/03 01:45:51;;;;;;;;;;;;;;;;;;348477;28;1516;-74
2022/02/03 01:46:16;;;;;;;;;;;;;;;;;;347216;28;1592;-73
2022/02/03 01:46:42;;;;;;;;;;;;;;;;;;347379;28;877;-74
2022/02/03 01:47:04;;;;;;;;;;;;;;;;;;347381;28;925;-74
2022/02/03 01:47:31;;;;;;;;;;;;;;;;;;347453;28;992;-73
2022/02/03 01:48:20;;;;;;;;;;;;;;;;;;347455;28;921;-74
2022/02/03 01:48:38;;;;;;;;;;;;;;;;;;347409;28;912;-74
2022/02/03 01:49:11;;;;;;;;;;;;;;;;;;347430;28;921;-74
2022/02/03 01:49:40;;;;;;;;;;;;;;;;;;347401;28;991;-74
2022/02/03 01:51:48;;;;;;;;;;;;;;;;;;348721;28;1319;-73
2022/02/03 01:52:00;;;;;;;;;;;;;;;;;;348807;28;873;-74
2022/02/03 01:52:10;;;;;;;;;;;;;;;;;;348803;28;813;-73
2022/02/03 01:52:32;;;;;;;;;;;;;;;;;;348737;28;794;-73
2022/02/03 01:52:44;;;;;;;;;;;;;;;;;;348747;28;1011;-74
2022/02/03 01:52:54;;;;;;;;;;;;;;;;;;348795;28;928;-73
2022/02/03 01:53:05;;;;;;;;;;;;;;;;;;348729;28;945;-74
2022/02/03 01:53:19;;;;;;;;;;;;;;;;;;348778;28;865;-74
2022/02/03 01:53:30;;;;;;;;;;;;;;;;;;348692;28;988;-73
2022/02/03 01:53:41;;;;;;;;;;;;;;;;;;348364;28;1695;-73
2022/02/03 01:53:51;;;;;;;;;;;;;;;;;;348170;28;1470;-74
2022/02/03 01:54:05;;;;;;;;;;;;;;;;;;348771;28;981;-74
2022/02/03 01:54:16;;;;;;;;;;;;;;;;;;348525;28;1672;-73
2022/02/03 01:54:29;;;;;;;;;;;;;;;;;;348707;28;1764;-74
2022/02/03 01:54:42;;;;;;;;;;;;;;;;;;347281;28;1039;-74
2022/02/03 01:54:55;;;;;;;;;;;;;;;;;;347446;28;779;-74
2022/02/03 01:55:26;;;;;;;;;;;;;;;;;;347361;28;1020;-74
2022/02/03 01:55:39;;;;;;;;;;;;;;;;;;347344;28;960;-74
2022/02/03 01:56:02;;;;;;;;;;;;;;;;;;347398;28;987;-74
2022/02/03 01:56:14;;;;;;;;;;;;;;;;;;347409;28;1181;-74
2022/02/03 01:56:34;;;;;;;;;;;;;;;;;;347400;28;913;-74
2022/02/03 01:56:55;;;;;;;;;;;;;;;;;;347341;28;953;-74
2022/02/03 01:57:12;;;;;;;;;;;;;;;;;;347373;28;1075;-74
2022/02/03 01:57:24;;;;;;;;;;;;;;;;;;347423;28;897;-74
2022/02/03 01:57:40;;;;;;;;;;;;;;;;;;347381;28;799;-74
2022/02/03 01:58:04;;;;;;;;;;;;;;;;;;347344;28;1554;-74
2022/02/03 01:58:23;;;;;;;;;;;;;;;;;;347338;28;972;-74
2022/02/03 01:58:45;;;;;;;;;;;;;;;;;;347352;28;925;-74
2022/02/03 01:58:58;;;;;;;;;;;;;;;;;;347470;28;795;-73
2022/02/03 01:59:18;;;;;;;;;;;;;;;;;;347376;28;999;-74
2022/02/03 01:59:28;;;;;;;;;;;;;;;;;;347420;28;905;-73
2022/02/03 01:59:40;;;;;;;;;;;;;;;;;;347370;28;988;-73
2022/02/03 01:59:56;;;;;;;;;;;;;;;;;;347389;28;889;-73
2022/02/03 02:00:11;;;;;;;;;;;;;;;;;;348001;28;1492;-73
2022/02/03 02:00:22;;;;;;;;;;;;;;;;;;348669;28;1540;-73
2022/02/03 02:00:36;;;;;;;;;;;;;;;;;;348798;28;940;-74
2022/02/03 02:00:57;;;;;;;;;;;;;;;;;;348619;28;1832;-73
2022/02/03 02:01:08;;;;;;;;;;;;;;;;;;348773;28;945;-74
2022/02/03 02:01:37;;;;;;;;;;;;;;;;;;348733;28;1047;-73
2022/02/03 02:01:57;;;;;;;;;;;;;;;;;;348770;28;932;-74
2022/02/03 02:02:08;;;;;;;;;;;;;;;;;;348714;28;1820;-73
2022/02/03 02:02:25;;;;;;;;;;;;;;;;;;348797;28;1008;-74
2022/02/03 02:02:37;;;;;;;;;;;;;;;;;;348762;28;916;-74
2022/02/03 02:03:05;;;;;;;;;;;;;;;;;;348834;28;860;-74
2022/02/03 02:03:16;;;;;;;;;;;;;;;;;;348765;28;929;-73
2022/02/03 02:03:40;;;;;;;;;;;;;;;;;;348841;28;778;-74
2022/02/03 02:03:54;;;;;;;;;;;;;;;;;;348773;28;925;-74
2022/02/03 02:04:09;;;;;;;;;;;;;;;;;;348708;28;999;-74
2022/02/03 02:04:22;;;;;;;;;;;;;;;;;;348754;28;1003;-74
2022/02/03 02:04:56;;;;;;;;;;;;;;;;;;348395;28;1814;-73
2022/02/03 02:05:09;;;;;;;;;;;;;;;;;;348556;28;941;-73
2022/02/03 02:05:19;;;;;;;;;;;;;;;;;;348588;28;993;-74
2022/02/03 02:05:42;;;;;;;;;;;;;;;;;;348595;28;944;-74
2022/02/03 02:06:13;;;;;;;;;;;;;;;;;;348534;28;953;-74
2022/02/03 02:06:42;;;;;;;;;;;;;;;;;;347382;28;814;-74
2022/02/03 02:07:11;;;;;;;;;;;;;;;;;;347415;28;977;-74
2022/02/03 02:07:38;;;;;;;;;;;;;;;;;;347348;28;904;-74
2022/02/03 02:07:56;;;;;;;;;;;;;;;;;;347372;28;1050;-74
2022/02/03 02:08:08;;;;;;;;;;;;;;;;;;347398;28;786;-74
2022/02/03 02:08:29;;;;;;;;;;;;;;;;;;347400;28;878;-74
2022/02/03 02:08:39;;;;;;;;;;;;;;;;;;347335;28;1087;-74
2022/02/03 02:09:04;;;;;;;;;;;;;;;;;;347388;28;933;-74
2022/02/03 02:09:27;;;;;;;;;;;;;;;;;;348241;28;1574;-73
2022/02/03 02:09:58;;;;;;;;;;;;;;;;;;347388;28;846;-74
2022/02/03 02:11:13;;;;;;;;;;;;;;;;;;348660;28;1154;-74
2022/02/03 02:11:51;;;;;;;;;;;;;;;;;;348423;28;1575;-74
2022/02/03 02:12:24;;;;;;;;;;;;;;;;;;347442;28;973;-73
2022/02/03 02:13:04;;;;;;;;;;;;;;;;;;347415;28;1624;-73
2022/02/03 02:14:12;;;;;;;;;;;;;;;;;;348666;28;1867;-73
2022/02/03 02:15:10;;;;;;;;;;;;;;;;;;347139;28;941;-74
2022/02/03 02:16:13;;;;;;;;;;;;;;;;;;346156;28;1515;-74
2022/02/03 02:16:34;;;;;;;;;;;;;;;;;;345801;28;1486;-74
2022/02/03 02:18:16;;;;;;;;;;;;;;;;;;348300;28;1660;-73
2022/02/03 02:19:46;;;;;;;;;;;;;;;;;;347357;28;922;-73
2022/02/03 02:37:33;;;;;;;;;;;;;;;;;;347396;28;941;-73
2022/02/03 02:38:13;;;;;;;;;;;;;;;;;;347890;28;1528;-74
2022/02/03 02:39:01;;;;;;;;;;;;;;;;;;348397;28;1800;-73
2022/02/03 02:39:33;;;;;;;;;;;;;;;;;;348426;28;1711;-73
2022/02/03 02:41:21;;;;;;;;;;;;;;;;;;348735;28;902;-74
2022/02/03 02:42:46;;;;;;;;;;;;;;;;;;347198;28;794;-74
2022/02/03 02:43:06;;;;;;;;;;;;;;;;;;348026;28;1732;-74
2022/02/03 02:43:31;;;;;;;;;;;;;;;;;;347784;28;1681;-74
2022/02/03 02:43:49;;;;;;;;;;;;;;;;;;346952;28;1191;-74
2022/02/03 02:44:26;;;;;;;;;;;;;;;;;;347176;28;999;-74
2022/02/03 02:44:36;;;;;;;;;;;;;;;;;;344356;28;917;-73
2022/02/03 02:45:01;;;;;;;;;;;;;;;;;;344379;28;1079;-74
2022/02/03 02:45:13;;;;;;;;;;;;;;;;;;344444;28;891;-74
2022/02/03 02:45:40;;;;;;;;;;;;;;;;;;344821;28;1003;-74
2022/02/03 02:45:51;;;;;;;;;;;;;;;;;;347862;28;1576;-74
2022/02/03 02:46:20;;;;;;;;;;;;;;;;;;348419;28;1476;-74
2022/02/03 02:46:45;;;;;;;;;;;;;;;;;;348631;28;1906;-74
2022/02/03 02:46:56;;;;;;;;;;;;;;;;;;348786;28;928;-73
2022/02/03 02:47:12;;;;;;;;;;;;;;;;;;348748;28;897;-74
2022/02/03 02:47:31;;;;;;;;;;;;;;;;;;348728;28;933;-74
2022/02/03 02:47:49;;;;;;;;;;;;;;;;;;348693;28;1127;-74
2022/02/03 02:48:12;;;;;;;;;;;;;;;;;;348743;28;928;-74
2022/02/03 02:48:34;;;;;;;;;;;;;;;;;;349390;28;1731;-74
2022/02/03 02:48:52;;;;;;;;;;;;;;;;;;347374;28;999;-74
2022/02/03 02:49:21;;;;;;;;;;;;;;;;;;347375;28;879;-74
2022/02/03 02:49:50;;;;;;;;;;;;;;;;;;347303;28;893;-73
2022/02/03 02:50:06;;;;;;;;;;;;;;;;;;347321;28;933;-73
2022/02/03 02:50:23;;;;;;;;;;;;;;;;;;347325;28;944;-74
2022/02/03 02:50:46;;;;;;;;;;;;;;;;;;347322;28;1019;-74
2022/02/03 02:51:08;;;;;;;;;;;;;;;;;;347317;28;929;-74
2022/02/03 02:51:23;;;;;;;;;;;;;;;;;;347298;28;1008;-73
2022/02/03 02:51:38;;;;;;;;;;;;;;;;;;348304;28;1718;-73
2022/02/03 02:52:06;;;;;;;;;;;;;;;;;;348712;28;966;-73
2022/02/03 02:52:24;;;;;;;;;;;;;;;;;;348721;28;940;-74
2022/02/03 02:52:42;;;;;;;;;;;;;;;;;;348713;28;932;-73
2022/02/03 02:52:59;;;;;;;;;;;;;;;;;;348261;28;1421;-73
2022/02/03 02:53:33;;;;;;;;;;;;;;;;;;347308;28;1045;-74
2022/02/03 02:54:52;;;;;;;;;;;;;;;;;;348623;28;878;-73
2022/02/03 02:56:04;;;;;;;;;;;;;;;;;;348489;28;1507;-74
2022/02/03 02:56:27;;;;;;;;;;;;;;;;;;348729;28;853;-74
2022/02/03 02:57:19;;;;;;;;;;;;;;;;;;348637;28;1492;-74
2022/02/03 02:57:45;;;;;;;;;;;;;;;;;;347113;28;1015;-74
2022/02/03 02:58:25;;;;;;;;;;;;;;;;;;347384;28;994;-74
2022/02/03 02:59:52;;;;;;;;;;;;;;;;;;347397;28;869;-74
2022/02/03 03:02:48;;;;;;;;;;;;;;;;;;348448;28;854;-74
2022/02/03 03:03:26;;;;;;;;;;;;;;;;;;348508;28;928;-74
2022/02/03 03:04:06;;;;;;;;;;;;;;;;;;348547;28;1106;-73
2022/02/03 03:29:01;;;;;;;;;;;;;;;;;;348529;28;933;-74
2022/02/03 03:29:09;;;;;;;;;;;;;;;;;;348707;28;1003;-73
2022/02/03 03:29:34;;;;;;;;;;;;;;;;;;348648;28;1007;-73
2022/02/03 03:30:15;;;;;;;;;;;;;;;;;;347440;28;1454;-73
2022/02/03 03:30:48;;;;;;;;;;;;;;;;;;347249;28;961;-74
2022/02/03 03:31:22;;;;;;;;;;;;;;;;;;347300;28;961;-74
2022/02/03 03:32:11;;;;;;;;;;;;;;;;;;347501;28;1581;-73
2022/02/03 03:32:57;;;;;;;;;;;;;;;;;;347231;28;1093;-74
2022/02/03 03:33:44;;;;;;;;;;;;;;;;;;347213;28;989;-73
2022/02/03 03:34:20;;;;;;;;;;;;;;;;;;347238;28;929;-74
2022/02/03 03:35:32;;;;;;;;;;;;;;;;;;348512;28;1492;-74
2022/02/03 03:35:50;;;;;;;;;;;;;;;;;;348612;28;991;-74
2022/02/03 03:36:05;;;;;;;;;;;;;;;;;;347292;28;996;-74
2022/02/03 03:36:19;;;;;;;;;;;;;;;;;;347333;28;815;-74
2022/02/03 03:36:30;;;;;;;;;;;;;;;;;;347249;28;937;-74
2022/02/03 03:36:42;;;;;;;;;;;;;;;;;;347241;28;925;-74
2022/02/03 03:36:55;;;;;;;;;;;;;;;;;;347289;28;925;-74
2022/02/03 03:37:10;;;;;;;;;;;;;;;;;;347250;28;980;-74
2022/02/03 03:37:31;;;;;;;;;;;;;;;;;;348410;28;1832;-73
2022/02/03 03:37:49;;;;;;;;;;;;;;;;;;348899;28;1382;-74
2022/02/03 03:38:00;;;;;;;;;;;;;;;;;;350034;28;952;-74
2022/02/03 03:38:12;;;;;;;;;;;;;;;;;;349985;28;885;-74
2022/02/03 03:38:25;;;;;;;;;;;;;;;;;;350056;28;1037;-73
2022/02/03 03:38:37;;;;;;;;;;;;;;;;;;349997;28;968;-73
2022/02/03 03:38:49;;;;;;;;;;;;;;;;;;350035;28;861;-74
2022/02/03 03:39:01;;;;;;;;;;;;;;;;;;350000;28;1000;-74
2022/02/03 03:39:12;;;;;;;;;;;;;;;;;;350046;28;991;-74
2022/02/03 03:39:28;;;;;;;;;;;;;;;;;;349965;28;936;-74
2022/02/03 03:39:47;;;;;;;;;;;;;;;;;;350032;28;933;-73
2022/02/03 03:40:01;;;;;;;;;;;;;;;;;;350070;28;862;-74
2022/02/03 03:40:13;;;;;;;;;;;;;;;;;;350004;28;1049;-74
2022/02/03 03:40:24;;;;;;;;;;;;;;;;;;349979;28;987;-74
2022/02/03 03:40:35;;;;;;;;;;;;;;;;;;349947;28;1207;-73
2022/02/03 03:40:54;;;;;;;;;;;;;;;;;;350000;28;995;-74
2022/02/03 03:41:04;;;;;;;;;;;;;;;;;;348489;28;1808;-73
2022/02/03 03:41:19;;;;;;;;;;;;;;;;;;348639;28;932;-74
2022/02/03 03:41:32;;;;;;;;;;;;;;;;;;348665;28;924;-74
2022/02/03 03:41:44;;;;;;;;;;;;;;;;;;347217;28;900;-74
2022/02/03 03:41:58;;;;;;;;;;;;;;;;;;347207;28;921;-73
2022/02/03 03:42:11;;;;;;;;;;;;;;;;;;347291;28;992;-73
2022/02/03 03:42:25;;;;;;;;;;;;;;;;;;347266;28;852;-74
2022/02/03 03:42:36;;;;;;;;;;;;;;;;;;347300;28;767;-73
2022/02/03 03:43:05;;;;;;;;;;;;;;;;;;347271;28;985;-73
2022/02/03 03:43:23;;;;;;;;;;;;;;;;;;347265;28;972;-73
2022/02/03 03:43:33;;;;;;;;;;;;;;;;;;347240;28;976;-73
2022/02/03 03:43:44;;;;;;;;;;;;;;;;;;347228;28;1000;-73
2022/02/03 03:44:07;;;;;;;;;;;;;;;;;;347304;28;869;-73
2022/02/03 03:44:18;;;;;;;;;;;;;;;;;;348174;28;1727;-73
2022/02/03 03:44:29;;;;;;;;;;;;;;;;;;348571;28;1442;-73
2022/02/03 03:44:41;;;;;;;;;;;;;;;;;;348525;28;1556;-73
2022/02/03 03:44:54;;;;;;;;;;;;;;;;;;348684;28;948;-74
2022/02/03 03:45:06;;;;;;;;;;;;;;;;;;348574;28;1543;-74
2022/02/03 03:45:19;;;;;;;;;;;;;;;;;;348640;28;976;-74
2022/02/03 03:45:30;;;;;;;;;;;;;;;;;;348682;28;853;-73
2022/02/03 03:45:51;;;;;;;;;;;;;;;;;;348601;28;929;-73
2022/02/03 03:46:08;;;;;;;;;;;;;;;;;;348413;28;1380;-74
2022/02/03 03:46:32;;;;;;;;;;;;;;;;;;348607;28;1019;-74
2022/02/03 03:46:46;;;;;;;;;;;;;;;;;;348551;28;1985;-74
2022/02/03 03:47:01;;;;;;;;;;;;;;;;;;348631;28;929;-73
2022/02/03 03:47:14;;;;;;;;;;;;;;;;;;348575;28;913;-74
2022/02/03 03:47:27;;;;;;;;;;;;;;;;;;348635;28;929;-74
2022/02/03 03:47:39;;;;;;;;;;;;;;;;;;348626;28;921;-73
2022/02/03 03:47:53;;;;;;;;;;;;;;;;;;348562;28;1018;-73
2022/02/03 03:48:05;;;;;;;;;;;;;;;;;;348671;28;1019;-74
2022/02/03 03:48:16;;;;;;;;;;;;;;;;;;348605;28;814;-73
2022/02/03 03:48:29;;;;;;;;;;;;;;;;;;348565;28;1064;-74
2022/02/03 03:48:54;;;;;;;;;;;;;;;;;;348343;28;1695;-73
2022/02/03 03:49:08;;;;;;;;;;;;;;;;;;347177;28;1641;-74
2022/02/03 03:49:46;;;;;;;;;;;;;;;;;;347439;28;1804;-74
2022/02/03 03:50:00;;;;;;;;;;;;;;;;;;347530;28;1705;-73
2022/02/03 03:50:14;;;;;;;;;;;;;;;;;;347266;28;917;-74
2022/02/03 03:50:25;;;;;;;;;;;;;;;;;;347233;28;798;-74
2022/02/03 03:50:36;;;;;;;;;;;;;;;;;;347972;28;1656;-73
2022/02/03 03:50:50;;;;;;;;;;;;;;;;;;348543;28;1776;-73
2022/02/03 03:51:03;;;;;;;;;;;;;;;;;;348578;28;933;-74
2022/02/03 03:51:15;;;;;;;;;;;;;;;;;;348657;28;932;-73
2022/02/03 03:51:41;;;;;;;;;;;;;;;;;;348607;28;1051;-73
2022/02/03 03:51:58;;;;;;;;;;;;;;;;;;347276;28;921;-74
2022/02/03 03:52:15;;;;;;;;;;;;;;;;;;347292;28;829;-74
2022/02/03 03:52:28;;;;;;;;;;;;;;;;;;347227;28;996;-74
2022/02/03 03:52:44;;;;;;;;;;;;;;;;;;347304;28;869;-74
2022/02/03 03:53:03;;;;;;;;;;;;;;;;;;347199;28;917;-74
2022/02/03 03:53:23;;;;;;;;;;;;;;;;;;347315;28;802;-74
2022/02/03 03:53:43;;;;;;;;;;;;;;;;;;347354;28;786;-74
2022/02/03 03:54:03;;;;;;;;;;;;;;;;;;347175;28;917;-73
2022/02/03 03:54:26;;;;;;;;;;;;;;;;;;347217;28;1005;-73
2022/02/03 03:54:47;;;;;;;;;;;;;;;;;;347322;28;965;-74
2022/02/03 03:55:14;;;;;;;;;;;;;;;;;;347537;28;1592;-73
2022/02/03 03:55:38;;;;;;;;;;;;;;;;;;348605;28;921;-73
2022/02/03 03:56:08;;;;;;;;;;;;;;;;;;348601;28;894;-73
2022/02/03 03:56:32;;;;;;;;;;;;;;;;;;348357;28;1533;-73
2022/02/03 03:57:09;;;;;;;;;;;;;;;;;;347249;28;803;-73
2022/02/03 04:00:20;;;;;;;;;;;;;;;;;;347184;28;1091;-74
2022/02/03 04:01:00;;;;;;;;;;;;;;;;;;347227;28;1025;-73
2022/02/03 04:30:08;;;;;;;;;;;;;;;;;;347208;28;988;-73
2022/02/03 04:33:51;;;;;;;;;;;;;;;;;;347389;28;1704;-73
2022/02/03 04:36:37;;;;;;;;;;;;;;;;;;347157;28;973;-74
2022/02/03 04:37:21;;;;;;;;;;;;;;;;;;347778;28;1551;-74
2022/02/03 04:38:57;;;;;;;;;;;;;;;;;;347183;28;968;-73
2022/02/03 04:40:49;;;;;;;;;;;;;;;;;;347162;28;893;-74
2022/02/03 04:41:18;;;;;;;;;;;;;;;;;;347160;28;1012;-73
2022/02/03 04:51:13;;;;;;;;;;;;;;;;;;347195;28;995;-73
2022/02/03 04:55:11;;;;;;;;;;;;;;;;;;348533;28;960;-74
2022/02/03 04:55:58;;;;;;;;;;;;;;;;;;348565;28;940;-73
2022/02/03 04:58:45;;;;;;;;;;;;;;;;;;347173;28;1110;-74
2022/02/03 05:01:45;;;;;;;;;;;;;;;;;;348558;28;1500;-74
2022/02/03 05:01:58;;;;;;;;;;;;;;;;;;348509;28;1516;-75
2022/02/03 05:03:03;;;;;;;;;;;;;;;;;;347668;28;1835;-74
2022/02/03 05:04:01;;;;;;;;;;;;;;;;;;347138;28;947;-75
2022/02/03 05:05:14;;;;;;;;;;;;;;;;;;348546;28;1048;-74
2022/02/03 05:05:56;;;;;;;;;;;;;;;;;;347113;28;1003;-75
2022/02/03 05:06:36;;;;;;;;;;;;;;;;;;347169;28;1000;-74